AirNav   TITAN Aviation Fuels
 
 1671 users online  

WA88 Horse Fly Airport
Ferndale, Washington, USA

GOING TO FERNDALE?


FAA INFORMATION EFFECTIVE 04 NOVEMBER 2021

Location

FAA Identifier: WA88
Lat/Long: 48-53-34.4030N 122-33-24.6090W
48-53.573383N 122-33.410150W
48.8928897,-122.5568358
(estimated)
Elevation: 70 ft. / 21 m (estimated)
Variation: 21E (1990)
From city: 3 miles NE of FERNDALE, WA
Time zone: UTC -8 (UTC -7 during Daylight Saving Time)
Zip code: 98248

Airport Operations

Airport use: Private use. Permission required prior to landing
Activation date: 06/1993
Control tower: no
ARTCC: SEATTLE CENTER
FSS: SEATTLE FLIGHT SERVICE STATION
Attendance: UNATNDD
Segmented circle: no

Airport Communications

WX ASOS at BLI (6 nm S): PHONE 360-671-8688
WX AWOS-3 at ORS (18 nm SW): 135.425 (360-376-6045)

Nearby radio navigation aids

VOR radial/distance  VOR name  Freq  Var
HUHr144/3.3WHATCOM VORTAC113.0020E
YVRr098/25.8VANCOUVER VOR/DME115.9017E
YYJr058/38.0VICTORIA VOR/DME113.7017E
CVVr351/39.5PENN COVE VOR/DME117.2019E

 
NDB name  Hdg/Dist  Freq  Var  ID
ABBOTSFORD179/7.834421EXX -..- -..-
WHITE ROCK115/10.133216EWC .-- -.-.
SKAGIT/BAY VIEW332/26.024016EBVS -... ...- ...
FRIDAY HARBOR022/29.428417EFHR ..-. .... .-.

Airport Services

Runway Information

Runway 7/25

Dimensions: 2200 x 45 ft. / 671 x 14 m
Surface: turf
RUNWAY 7  RUNWAY 25
Traffic pattern: leftleft
Obstructions: none
07/25 HAS 30 FT PLINES 250 FT ENE.
150 ft. trees, 100 ft. from runway, 100 ft. right of centerline

Airport Ownership and Management from official FAA records

Ownership: Privately-owned
Owner: ROBERT D MCFARLAND
7022 DAHLBERG ROAD
FERNDALE, WA 98248
Phone 360-220-5548
Manager: ROBERT D MCFARLAND
7022 DAHLBERG ROAD
FERNDALE, WA 98248
Phone 360-220-5548

Airport Operational Statistics

Aircraft based on the field: 3
Single engine airplanes: 2
Helicopters: 1
    

Additional Remarks

FOR CD CTC SEATTLE ARTCC AT 253-351-3694.
LND W ONLY, TKOF E ONLY.

Instrument Procedures

There are no published instrument procedures at WA88.

Some nearby airports with instrument procedures:

KBLI - Bellingham International Airport (6 nm S)
KORS - Orcas Island Airport (18 nm SW)
KBVS - Skagit Regional Airport (26 nm S)
KFHR - Friday Harbor Airport (29 nm SW)
KNUW - Whidbey Island Naval Air Station (Ault Field) (33 nm S)
 
Loc | Ops | Rwys | IFR | FBO | Links
Com | Nav | Svcs | Stats | Notes
Area around WA88 (Horse Fly Airport)
 
Road maps at: MapQuest Bing Google
 
Aerial photo
No photo
 
Sectional chart

 
Airport distance calculator
Flying to Horse Fly Airport? Find the distance to fly.

From to WA88

Sunrise and sunset
Times for 30-Nov-2021
 Local
(UTC-8)
 Zulu
(UTC)
Morning civil twilight07:0615:06
Sunrise07:4215:42
Sunset16:1600:16
Evening civil twilight16:5200:52

Current date and time
Zulu (UTC)  30-Nov-2021 17:46:24
Local (UTC-8)  30-Nov-2021 09:46:24
 
METAR
KBLI 
6nm S 
301653Z 17014G20KT 1SM R16/P6000FT -RA BR FEW009 SCT018 SCT044 11/09 A3010 RMK AO2 SLP201 P0007 T01110094
CYXX 
11nm NE 
301700Z 17007KT 120V190 6SM -RA BR FEW007 BKN015 OVC057 10/10 A3010 RMK SF2SC3SC3 SLP197
CWWK 
11nm NW 
301700Z AUTO 08002KT 10/09 RMK AO1 6PAST HR 3010 SLP199 P0014 T00990094 50108
KORS 
18nm SW 
301735Z AUTO 16007G14KT 5SM -RA BR SCT018 OVC043 11/10 A3011 RMK AO2
CWMM 
19nm N 
301700Z AUTO 05003KT 09/09 RMK AO1 SLP202 T00930088 52010
TAF
KBLI 
6nm S 
301601Z 3016/0112 16009G18KT 4SM -RA BR SCT009 OVC040 TEMPO 3016/3020 1SM RA BKN009 FM302100 18008G15KT 5SM -RA BR OVC014 FM010300 15014G22KT 6SM -RA BR OVC016
CYXX 
11nm NE 
301138Z 3012/0112 24010KT 6SM -RA BR SCT005 OVC040 TEMPO 3012/3018 2SM RA BR BKN005 OVC020 BECMG 3016/3018 18012G22KT FM301800 18012G22KT P6SM -RA SCT020 OVC040 TEMPO 3018/0105 2SM RA BR OVC020 FM010500 18015G25KT P6SM SCT020 OVC040 TEMPO 0105/0112 5SM -RA BR BKN020 OVC040 RMK NXT FCST BY 301800Z
NOTAMs
Click for the latest NOTAMs
NOTAMs are issued by the DoD/FAA and will open in a separate window not controlled by AirNav.

 

 
 

Would you like to see your business listed on this page?

 If your business provides an interesting product or service to pilots, flight crews, aircraft, or users of the Horse Fly Airport, you should consider listing it here.  To start the listing process, click on the button below
 
Add a business
 

Other Pages about Horse Fly Airport

Update a link
 
Copyright © AirNav, LLC. All rights reserved. Privacy Policy  Contact